• Join FlightAware (Why Join?)
  • Login
  • US Flag 
02:37AM EDT


 

Airport Tracker/Info


-or-


 

Live Flight TrackerFlight Track Log ✈ N552XJ ✈ 19-Apr-2013 ✈ KOPF - KSRQ

Flight Track Log - Related Links

Times and Time Zones

All times are in EDT time to prevent confusion due to time zone crossing. See the N552XJ flight status page for this flight to view local times or setup timezone preferences in your user account.

Time Position Orientation Groundspeed Altitude Reporting Facility
EDT Latitude Longitude Course Direction KTS MPH feet Rate Location/Type
01:10PM 25.9136 -80.2547 56° Northeast 171 197 1,300  Level Miami Center
01:11PM 25.9569 -80.1819 56° Northeast 250 288 3,300 1,800 Climbing Miami Center
01:12PM 26.0017 -80.2364 312° West 280 322 5,800 3,780 Climbing Miami Center
01:13PM 26.0228 -80.3178 286° West 297 342 11,100 4,740 Climbing Miami Center
01:15PM 26.0792 -80.3981 308° West 330 380 16,000 2,220 Climbing Miami Center
01:16PM 26.1333 -80.4947 302° West 354 407 15,900 -60 Descending Miami Center
01:17PM 26.1956 -80.5961 304° West 382 440 15,900  Level Miami Center
01:18PM 26.2533 -80.6975 302° West 387 445 16,000  Climbing Miami Center
01:19PM 26.3172 -80.8083 303° West 392 451 16,000  Level Miami Center
01:20PM 26.3733 -80.9008 304° West 398 458 16,000  Level Miami Center
01:21PM 26.4456 -81.0031 308° West 390 449 16,000  Level Miami Center
01:22PM 26.5269 -81.0825 319° Northwest 385 443 16,000  Level Miami Center
01:23PM 26.6081 -81.1642 318° Northwest 391 450 16,000  Level Miami Center
01:24PM 26.6831 -81.2392 318° Northwest 391 450 16,000  Level Miami Center
01:25PM 26.7619 -81.3211 317° Northwest 391 450 16,000  Level Miami Center
01:26PM 26.8294 -81.4283 305° West 384 442 16,000 -60 Level Miami Center
01:27PM 26.8531 -81.5456 283° West 377 434 15,900 -600 Descending Miami Center
01:28PM 26.8997 -81.6500 297° West 384 442 14,900 -960 Descending Miami Center
01:29PM 26.9833 -81.7092 328° Northwest 378 435 14,000 -960 Descending Miami Center
01:30PM 27.0750 -81.7714 329° Northwest 383 441 13,000 -900 Descending Miami Center
01:31PM 27.1658 -81.8033 343° North 357 411 12,200 -1,260 Descending Miami Center
01:32PM 27.2528 -81.8233 348° North 344 396 10,500 -2,220 Descending Miami Center
01:33PM 27.3117 -81.8750 322° Northwest 317 365 7,800 -2,820 Descending Miami Center
01:34PM 27.3294 -81.9597 283° West 257 296 4,900 -1,920 Descending Miami Center
01:35PM 27.3411 -82.0422 279° West 257 296 4,000 -480 Descending Miami Center
01:36PM 27.3528 -82.1222 279° West 262 302 4,000  Level Miami Center
01:37PM 27.3622 -82.2067 277° West 267 307 4,000  Level Miami Center
01:38PM 27.3697 -82.2889 276° West 267 307 4,000  Level Miami Center
01:39PM 27.3769 -82.3686 276° West 267 307 4,000  Level Miami Center
01:39PM 27.4000 -82.4167 298° West 276 318 4,000  Level Tampa TRACON
01:40PM 27.4667 -82.4833 318° Northwest 272 313 4,000 -120 Level Tampa TRACON
01:41PM 27.5167 -82.5167 329° Northwest 229 264 3,800 -900 Descending Tampa TRACON
01:42PM 27.5167 -82.5667 270° West 198 228 2,300 -1,020 Descending Tampa TRACON
01:43PM 27.4833 -82.6000 222° Southwest 150 173 1,800 -600 Descending Tampa TRACON
01:44PM 27.4500 -82.6000 180° South 134 154 1,100 -600 Descending Tampa TRACON
01:45PM 27.4167 -82.5833 156° South 117 135 600 -540 Descending Tampa TRACON
01:47PM 27.3954 -82.5544 259° West  Level Estimated
01:54PM 27.3954 -82.5544 259° West  Level Estimated
01:55PM 27.3954 -82.5544 259° West  Level Estimated